Time;durP1;ratioP1;P1;durP2;ratioP2;P2;SDS_P1;SDS_P2;PMS_P1;PMS_P2;Temp;Humidity;BMP_temperature;BMP_pressure;BME280_temperature;BME280_humidity;BME280_pressure;Samples;Min_cycle;Max_cycle;Signal;HPM_P1;HPM_P2
2022/11/03 00:01:37;;;;;;;15.23;3.63;;;12.10;99.90;;;;;;5105812;27;20119;-79
2022/11/03 00:04:04;;;;;;;14.57;3.22;;;12.10;99.90;;;;;;5058600;28;20037;-79
2022/11/03 00:06:29;;;;;;;12.10;3.00;;;12.10;99.90;;;;;;5050204;28;20513;-79
2022/11/03 00:08:59;;;;;;;13.73;3.55;;;12.10;99.90;;;;;;5049786;28;20044;-79
2022/11/03 00:11:25;;;;;;;14.20;3.40;;;12.10;99.90;;;;;;5062313;28;20059;-78
2022/11/03 00:13:51;;;;;;;12.60;3.38;;;12.10;99.90;;;;;;5054915;28;20784;-79
2022/11/03 00:16:17;;;;;;;15.10;3.70;;;12.10;99.90;;;;;;5068827;28;20040;-79
2022/11/03 00:18:42;;;;;;;16.50;3.53;;;12.10;99.90;;;;;;5064838;28;20140;-79
2022/11/03 00:21:11;;;;;;;13.98;3.58;;;12.10;99.90;;;;;;5055993;28;20043;-79
2022/11/03 00:23:41;;;;;;;13.30;3.22;;;12.10;99.90;;;;;;5062151;28;20059;-79
2022/11/03 00:26:13;;;;;;;14.80;3.03;;;12.10;99.90;;;;;;5064505;28;20162;-79
2022/11/03 00:28:41;;;;;;;13.90;3.22;;;12.20;99.90;;;;;;5056695;28;20052;-78
2022/11/03 00:31:17;;;;;;;12.93;3.33;;;12.20;99.90;;;;;;5062405;28;20467;-79
2022/11/03 00:33:43;;;;;;;12.80;3.53;;;12.20;99.90;;;;;;5062321;28;20040;-80
2022/11/03 00:36:14;;;;;;;12.10;2.90;;;12.20;99.90;;;;;;5060773;28;20132;-79
2022/11/03 00:38:40;;;;;;;15.05;3.30;;;12.20;99.90;;;;;;5071903;28;20485;-79
2022/11/03 00:41:06;;;;;;;13.55;3.30;;;12.20;99.90;;;;;;5065059;28;20080;-78
2022/11/03 00:43:34;;;;;;;15.05;3.55;;;12.20;99.90;;;;;;5060507;28;20037;-79
2022/11/03 00:46:01;;;;;;;12.20;3.47;;;12.20;99.90;;;;;;5070268;28;20132;-79
2022/11/03 00:48:29;;;;;;;13.37;3.20;;;12.20;99.90;;;;;;5063459;28;20109;-79
2022/11/03 00:51:07;;;;;;;13.77;3.13;;;12.10;99.90;;;;;;5067171;28;20091;-79
2022/11/03 00:53:38;;;;;;;12.95;3.50;;;12.10;99.90;;;;;;5055635;28;20052;-79
2022/11/03 00:56:05;;;;;;;10.10;3.20;;;12.10;99.90;;;;;;5073059;28;20076;-79
2022/11/03 00:58:31;;;;;;;15.60;3.58;;;12.10;99.90;;;;;;5067900;28;20048;-79
2022/11/03 01:01:09;;;;;;;14.45;3.05;;;12.10;99.90;;;;;;5061745;28;20162;-79
2022/11/03 01:03:36;;;;;;;14.55;3.22;;;12.00;99.90;;;;;;5061724;28;20032;-79
2022/11/03 01:08:49;;;;;;;;;;;12.00;99.90;;;;;;5063074;28;20011;-79
2022/11/03 01:14:03;;;;;;;12.05;3.72;;;12.00;99.90;;;;;;5063227;28;20044;-79
2022/11/03 01:16:30;;;;;;;13.85;3.00;;;12.00;99.90;;;;;;5067737;28;20037;-79
2022/11/03 01:18:56;;;;;;;14.55;4.07;;;11.90;99.90;;;;;;5055270;28;20064;-79
2022/11/03 01:21:22;;;;;;;12.63;3.10;;;12.00;99.90;;;;;;5059076;28;20170;-78
2022/11/03 01:23:48;;;;;;;13.02;2.97;;;12.00;99.90;;;;;;5052706;28;20033;-79
2022/11/03 01:26:14;;;;;;;15.88;3.40;;;11.90;99.90;;;;;;5057806;28;20043;-78
2022/11/03 01:28:42;;;;;;;16.75;3.80;;;11.90;99.90;;;;;;5068256;28;20049;-79
2022/11/03 01:31:19;;;;;;;12.50;3.40;;;11.90;99.90;;;;;;5081161;28;20041;-78
2022/11/03 01:33:45;;;;;;;13.38;3.88;;;11.90;99.90;;;;;;5069920;28;20063;-79
2022/11/03 01:36:13;;;;;;;13.40;3.10;;;11.90;99.90;;;;;;5077101;28;20052;-79
2022/11/03 01:38:39;;;;;;;13.60;3.28;;;11.80;99.90;;;;;;5067263;28;20048;-78
2022/11/03 01:41:07;;;;;;;12.85;3.40;;;11.90;99.90;;;;;;5060301;28;20064;-79
2022/11/03 01:43:33;;;;;;;13.70;3.92;;;11.80;99.90;;;;;;5074376;28;20127;-79
2022/11/03 01:46:12;;;;;;;13.68;3.20;;;11.80;99.90;;;;;;5064012;28;20048;-79
2022/11/03 01:49:04;;;;;;;14.07;3.78;;;11.80;99.90;;;;;;5067143;28;20456;-79
2022/11/03 01:51:32;;;;;;;15.05;3.67;;;11.70;99.90;;;;;;5040456;28;20060;-78
2022/11/03 01:54:02;;;;;;;16.98;3.97;;;11.70;99.90;;;;;;5063473;28;20048;-80
2022/11/03 01:56:30;;;;;;;17.45;3.60;;;11.70;99.90;;;;;;5068817;28;20128;-79
2022/11/03 01:58:56;;;;;;;13.27;3.88;;;11.70;99.90;;;;;;5065714;28;20976;-79
2022/11/03 02:01:22;;;;;;;14.45;3.65;;;11.60;99.90;;;;;;5057249;28;20058;-79
2022/11/03 02:03:52;;;;;;;10.88;3.20;;;11.60;99.90;;;;;;5069437;28;20036;-79
2022/11/03 02:06:21;;;;;;;14.40;4.05;;;11.70;99.90;;;;;;5066014;28;20064;-79
2022/11/03 02:08:53;;;;;;;16.35;3.67;;;11.60;99.90;;;;;;5059825;28;20041;-79
2022/11/03 02:14:03;;;;;;;13.80;3.78;;;11.60;99.90;;;;;;5071962;28;20049;-79
2022/11/03 02:16:31;;;;;;;13.57;3.50;;;11.60;99.90;;;;;;5063805;28;20110;-78
2022/11/03 02:19:00;;;;;;;12.88;3.88;;;11.60;99.90;;;;;;5075445;28;20149;-79
2022/11/03 02:21:51;;;;;;;15.95;3.60;;;11.60;99.90;;;;;;5066837;28;20044;-79
2022/11/03 02:24:30;;;;;;;13.60;3.85;;;11.60;99.90;;;;;;5075148;28;20502;-79
2022/11/03 02:26:56;;;;;;;16.10;4.15;;;11.60;99.90;;;;;;5065967;28;20036;-78
2022/11/03 02:29:21;;;;;;;12.50;3.40;;;11.50;99.90;;;;;;5069696;28;20064;-78
2022/11/03 02:32:14;;;;;;;11.77;3.67;;;11.50;99.90;;;;;;5052545;28;20594;-79
2022/11/03 02:34:47;;;;;;;13.57;3.80;;;11.50;99.90;;;;;;5060944;28;20049;-79
2022/11/03 02:37:19;;;;;;;15.60;3.80;;;11.50;99.90;;;;;;5057471;28;20094;-79
2022/11/03 02:40:00;;;;;;;11.88;3.55;;;11.50;99.90;;;;;;5064253;28;20055;-79
2022/11/03 02:42:26;;;;;;;15.70;3.83;;;11.40;99.90;;;;;;5059161;28;20120;-79
2022/11/03 02:44:54;;;;;;;14.65;3.92;;;11.40;99.90;;;;;;5068727;28;20058;-79
2022/11/03 02:47:21;;;;;;;17.58;3.97;;;11.40;99.90;;;;;;5064407;28;20101;-79
2022/11/03 02:49:49;;;;;;;15.02;3.55;;;11.40;99.90;;;;;;5073707;28;20051;-79
2022/11/03 02:52:51;;;;;;;15.60;3.75;;;11.40;99.90;;;;;;5069646;28;20887;-78
2022/11/03 02:55:19;;;;;;;14.70;3.83;;;11.40;99.90;;;;;;4991841;28;20517;-79
2022/11/03 02:58:13;;;;;;;13.43;3.67;;;11.40;99.90;;;;;;5052814;28;20048;-79
2022/11/03 03:00:51;;;;;;;16.15;3.50;;;11.40;99.90;;;;;;5041646;28;20508;-79
2022/11/03 03:03:25;;;;;;;13.68;3.80;;;11.40;99.90;;;;;;5059565;28;20048;-79
2022/11/03 03:05:55;;;;;;;12.63;4.13;;;11.40;99.90;;;;;;5067214;28;20052;-78
2022/11/03 03:08:23;;;;;;;13.63;3.70;;;11.40;99.90;;;;;;5071959;28;20055;-79
2022/11/03 03:10:50;;;;;;;16.20;4.63;;;11.40;99.90;;;;;;5050839;28;20049;-79
2022/11/03 03:13:20;;;;;;;15.45;3.67;;;11.40;99.90;;;;;;5065106;28;20036;-79
2022/11/03 03:16:10;;;;;;;14.55;3.35;;;11.40;99.90;;;;;;5057960;28;20483;-79
2022/11/03 03:18:56;;;;;;;16.08;3.75;;;11.40;99.90;;;;;;5062025;28;20391;-79
2022/11/03 03:21:30;;;;;;;11.90;3.72;;;11.40;99.90;;;;;;5047921;28;20674;-78
2022/11/03 03:24:15;;;;;;;15.10;4.30;;;11.40;99.90;;;;;;5057667;28;20120;-79
2022/11/03 03:26:44;;;;;;;14.32;3.70;;;11.40;99.90;;;;;;5075007;28;20051;-79
2022/11/03 03:29:49;;;;;;;14.00;3.50;;;11.40;99.90;;;;;;5067869;28;20064;-79
2022/11/03 03:32:19;;;;;;;15.18;3.95;;;11.40;99.90;;;;;;5036658;28;20060;-78
2022/11/03 03:34:47;;;;;;;16.27;4.07;;;11.40;99.90;;;;;;5063478;28;20036;-79
2022/11/03 03:37:15;;;;;;;15.23;4.18;;;11.40;99.90;;;;;;5070676;28;20040;-79
2022/11/03 03:39:45;;;;;;;14.38;3.78;;;11.40;99.90;;;;;;5062005;28;20491;-79
2022/11/03 03:42:13;;;;;;;13.85;3.45;;;11.40;99.90;;;;;;5061671;28;20044;-78
2022/11/03 03:44:40;;;;;;;12.85;3.33;;;11.40;99.90;;;;;;5066434;28;20062;-79
2022/11/03 03:47:13;;;;;;;14.05;3.28;;;11.40;99.90;;;;;;5067159;28;20048;-79
2022/11/03 03:49:39;;;;;;;18.10;4.13;;;11.30;99.90;;;;;;5054640;28;20052;-79
2022/11/03 03:52:08;;;;;;;12.43;3.20;;;11.40;99.90;;;;;;5053863;28;20420;-78
2022/11/03 03:54:34;;;;;;;11.90;3.10;;;11.40;99.90;;;;;;5073906;28;20043;-78
2022/11/03 03:57:04;;;;;;;12.95;3.53;;;11.40;99.90;;;;;;5060318;28;20041;-79
2022/11/03 03:59:30;;;;;;;14.10;3.40;;;11.40;99.90;;;;;;5068584;28;20048;-79
2022/11/03 04:01:56;;;;;;;11.73;3.10;;;11.30;99.90;;;;;;5069520;28;20073;-79
2022/11/03 04:04:22;;;;;;;14.75;4.32;;;11.30;99.90;;;;;;5063790;28;20040;-83
2022/11/03 04:06:48;;;;;;;14.32;3.47;;;11.30;99.90;;;;;;5066569;28;20045;-78
2022/11/03 04:09:13;;;;;;;13.52;3.58;;;11.30;99.90;;;;;;5060230;28;20127;-79
2022/11/03 04:23:03;;;;;;;15.90;3.33;;;11.20;99.90;;;;;;5043813;28;20048;-79
2022/11/03 04:25:29;;;;;;;15.48;4.10;;;11.20;99.90;;;;;;5067013;28;20364;-77
2022/11/03 04:27:54;;;;;;;14.25;3.58;;;11.20;99.90;;;;;;5052640;28;20072;-79
2022/11/03 04:30:23;;;;;;;12.68;3.72;;;11.30;99.90;;;;;;5055996;28;20212;-78
2022/11/03 04:32:50;;;;;;;12.07;3.45;;;11.20;99.90;;;;;;5115348;27;20040;-79
2022/11/03 04:35:23;;;;;;;13.33;3.17;;;11.20;99.90;;;;;;5075251;28;20101;-79
2022/11/03 04:38:15;;;;;;;11.52;2.90;;;11.20;99.90;;;;;;5060636;28;20338;-77
2022/11/03 04:40:45;;;;;;;12.95;3.28;;;11.20;99.90;;;;;;5054541;28;20692;-79
2022/11/03 04:43:13;;;;;;;13.13;3.22;;;11.20;99.90;;;;;;5054590;28;20906;-79
2022/11/03 04:45:39;;;;;;;13.57;3.33;;;11.30;99.90;;;;;;5061522;28;20504;-79
2022/11/03 04:48:20;;;;;;;11.13;3.50;;;11.20;99.90;;;;;;5064814;28;20044;-79
2022/11/03 04:50:46;;;;;;;15.80;4.00;;;11.30;99.90;;;;;;5067090;28;20044;-79
2022/11/03 04:53:14;;;;;;;12.67;3.43;;;11.30;99.90;;;;;;5075333;28;20036;-78
2022/11/03 04:55:41;;;;;;;12.02;3.13;;;11.20;99.90;;;;;;5071214;28;20040;-79
2022/11/03 04:58:22;;;;;;;17.23;3.78;;;11.30;99.90;;;;;;5055516;28;20051;-78
2022/11/03 05:00:53;;;;;;;12.30;3.47;;;11.30;99.90;;;;;;5073081;28;20520;-78
2022/11/03 05:03:27;;;;;;;11.90;3.28;;;11.30;99.90;;;;;;5071105;28;20347;-78
2022/11/03 05:05:53;;;;;;;15.00;3.55;;;11.30;99.90;;;;;;5062002;28;20480;-78
2022/11/03 05:08:20;;;;;;;9.77;3.05;;;11.30;99.90;;;;;;5054663;28;20118;-78
2022/11/03 05:10:46;;;;;;;14.13;3.67;;;11.20;99.90;;;;;;5071634;28;20036;-79
2022/11/03 05:13:19;;;;;;;13.13;3.20;;;11.30;99.90;;;;;;5061249;28;20058;-78
2022/11/03 05:15:46;;;;;;;12.60;4.00;;;11.30;99.90;;;;;;5057500;28;20032;-79
2022/11/03 05:18:20;;;;;;;14.70;4.22;;;11.30;99.90;;;;;;5052121;28;20656;-78
2022/11/03 05:20:49;;;;;;;14.07;3.22;;;11.30;99.90;;;;;;5052085;28;20071;-78
2022/11/03 05:23:16;;;;;;;12.68;3.83;;;11.30;99.90;;;;;;5066539;28;20048;-79
2022/11/03 05:25:46;;;;;;;14.38;2.92;;;11.30;99.90;;;;;;5066790;28;20048;-79
2022/11/03 05:28:21;;;;;;;14.95;3.40;;;11.30;99.90;;;;;;5057038;28;20072;-78
2022/11/03 05:30:51;;;;;;;15.18;3.45;;;11.20;99.90;;;;;;5077870;28;20139;-78
2022/11/03 05:33:24;;;;;;;14.45;3.40;;;11.30;99.90;;;;;;5059617;28;20052;-79
2022/11/03 05:35:49;;;;;;;13.35;3.15;;;11.30;99.90;;;;;;5065869;28;20040;-79
2022/11/03 05:38:19;;;;;;;12.27;3.35;;;11.30;99.90;;;;;;5062954;28;20052;-79
2022/11/03 05:40:45;;;;;;;11.70;3.30;;;11.30;99.90;;;;;;5054605;28;20033;-79
2022/11/03 05:43:13;;;;;;;12.45;3.30;;;11.30;99.90;;;;;;5055566;28;20067;-78
2022/11/03 05:45:39;;;;;;;10.77;3.00;;;11.30;99.90;;;;;;5072066;28;20041;-78
2022/11/03 05:48:15;;;;;;;10.93;3.42;;;11.30;99.90;;;;;;5075315;28;20491;-78
2022/11/03 05:50:41;;;;;;;13.07;3.50;;;11.30;99.90;;;;;;5062717;28;20538;-79
2022/11/03 05:53:13;;;;;;;14.07;3.53;;;11.30;99.90;;;;;;5074243;28;20071;-78
2022/11/03 05:55:39;;;;;;;12.18;3.70;;;11.30;99.90;;;;;;5062985;28;20162;-79
2022/11/03 05:58:30;;;;;;;13.77;3.95;;;11.30;99.90;;;;;;5065392;28;20070;-79
2022/11/03 06:00:57;;;;;;;10.82;3.10;;;11.30;99.90;;;;;;5057868;28;20048;-79
2022/11/03 06:03:26;;;;;;;12.45;3.20;;;11.30;99.90;;;;;;5064668;28;20045;-78
2022/11/03 06:05:53;;;;;;;15.25;3.30;;;11.30;99.90;;;;;;5066666;28;20044;-78
2022/11/03 06:08:22;;;;;;;11.30;3.08;;;11.30;99.90;;;;;;5055820;28;20068;-79
2022/11/03 06:10:54;;;;;;;12.38;3.22;;;11.20;99.90;;;;;;5065985;28;20040;-79
2022/11/03 06:13:34;;;;;;;10.75;3.58;;;11.20;99.90;;;;;;5071458;28;20052;-78
2022/11/03 06:16:05;;;;;;;13.13;3.72;;;11.20;99.90;;;;;;5062117;28;20053;-78
2022/11/03 06:18:37;;;;;;;15.98;3.85;;;11.10;99.90;;;;;;5055475;28;20049;-78
2022/11/03 06:21:17;;;;;;;14.02;3.05;;;11.10;99.90;;;;;;5059277;28;20051;-79
2022/11/03 06:23:43;;;;;;;12.90;3.53;;;11.10;99.90;;;;;;5052875;28;20040;-79
2022/11/03 06:26:23;;;;;;;10.65;3.38;;;11.00;99.90;;;;;;5069568;28;20443;-78
2022/11/03 06:28:49;;;;;;;15.73;3.47;;;11.00;99.90;;;;;;5064981;28;20067;-79
2022/11/03 06:31:26;;;;;;;16.15;3.80;;;11.00;99.90;;;;;;5057601;28;20452;-78
2022/11/03 06:33:52;;;;;;;12.40;3.28;;;11.00;99.90;;;;;;5064921;28;20396;-79
2022/11/03 06:36:24;;;;;;;11.60;3.30;;;11.00;99.90;;;;;;5061251;28;20103;-79
2022/11/03 06:38:54;;;;;;;12.75;3.42;;;11.00;99.90;;;;;;5065039;28;20033;-78
2022/11/03 06:41:24;;;;;;;11.45;3.70;;;11.00;99.90;;;;;;5064254;28;20143;-75
2022/11/03 06:43:50;;;;;;;14.48;3.90;;;11.00;99.90;;;;;;5062637;28;20087;-77
2022/11/03 06:46:19;;;;;;;11.40;3.45;;;11.00;99.90;;;;;;5057524;28;20067;-76
2022/11/03 06:48:44;;;;;;;16.27;4.22;;;11.00;99.90;;;;;;5107517;27;20571;-77
2022/11/03 06:51:18;;;;;;;16.30;4.15;;;10.90;99.90;;;;;;5068169;28;20032;-76
2022/11/03 06:53:45;;;;;;;14.40;3.92;;;11.00;99.90;;;;;;5056056;28;20089;-77
2022/11/03 06:56:17;;;;;;;15.15;3.67;;;11.00;99.90;;;;;;5065841;28;20044;-75
2022/11/03 06:58:44;;;;;;;14.55;3.65;;;11.00;99.90;;;;;;5050540;28;20052;-76
2022/11/03 07:01:34;;;;;;;12.88;3.58;;;11.00;99.90;;;;;;5064637;28;20415;-77
2022/11/03 07:04:13;;;;;;;14.68;3.83;;;11.00;99.90;;;;;;5063116;28;20148;-76
2022/11/03 07:06:40;;;;;;;12.25;3.78;;;11.00;99.90;;;;;;5052564;28;20040;-76
2022/11/03 07:09:20;;;;;;;11.63;3.60;;;11.00;99.90;;;;;;5083263;28;20052;-76
2022/11/03 07:11:54;;;;;;;11.32;3.55;;;11.00;99.90;;;;;;5073008;28;20036;-76
2022/11/03 07:14:31;;;;;;;12.27;3.60;;;11.00;99.90;;;;;;5060381;28;20622;-77
2022/11/03 07:17:03;;;;;;;15.05;3.85;;;11.00;99.90;;;;;;5059803;28;20043;-76
2022/11/03 07:19:34;;;;;;;12.20;3.53;;;11.10;99.90;;;;;;5067560;28;20499;-76
2022/11/03 07:22:03;;;;;;;16.55;3.60;;;11.10;99.90;;;;;;5057833;28;20070;-76
2022/11/03 07:24:37;;;;;;;9.30;3.17;;;11.10;99.90;;;;;;5086168;28;20041;-76
2022/11/03 07:27:07;;;;;;;11.43;3.78;;;11.10;99.90;;;;;;5059250;28;20047;-76
2022/11/03 07:29:33;;;;;;;15.02;3.97;;;11.10;99.90;;;;;;5057599;28;20068;-75
2022/11/03 07:31:59;;;;;;;13.52;4.00;;;11.10;99.90;;;;;;5056029;28;20115;-77
2022/11/03 07:34:30;;;;;;;16.65;3.65;;;11.10;99.90;;;;;;5065896;28;20055;-76
2022/11/03 07:36:57;;;;;;;13.15;4.40;;;11.20;99.90;;;;;;5071458;28;20110;-76
2022/11/03 07:39:25;;;;;;;12.98;3.58;;;11.20;99.90;;;;;;5067162;28;20036;-76
2022/11/03 07:41:50;;;;;;;12.80;3.72;;;11.20;99.90;;;;;;5057882;28;20488;-76
2022/11/03 07:44:21;;;;;;;13.43;3.50;;;11.30;99.90;;;;;;5059689;28;20136;-76
2022/11/03 07:46:49;;;;;;;13.07;3.13;;;11.30;99.90;;;;;;5096863;28;20033;-77
2022/11/03 07:49:28;;;;;;;12.65;3.47;;;11.30;99.90;;;;;;5055473;28;20048;-76
2022/11/03 07:51:58;;;;;;;12.88;4.03;;;11.40;99.90;;;;;;5065055;28;20051;-76
2022/11/03 07:54:33;;;;;;;13.13;3.80;;;11.40;99.90;;;;;;5060133;28;20060;-76
2022/11/03 07:57:21;;;;;;;15.45;3.97;;;11.40;99.90;;;;;;5052512;28;20045;-76
2022/11/03 07:59:49;;;;;;;15.23;4.13;;;11.40;99.90;;;;;;5057304;28;20047;-75
2022/11/03 08:02:38;;;;;;;13.18;3.67;;;11.40;99.90;;;;;;5069574;28;20454;-85
2022/11/03 08:05:04;;;;;;;13.68;4.05;;;11.50;99.90;;;;;;5065608;28;20047;-77
2022/11/03 08:07:30;;;;;;;10.48;4.13;;;11.50;99.90;;;;;;5061306;28;20098;-78
2022/11/03 08:09:57;;;;;;;13.27;3.75;;;11.50;99.90;;;;;;5068842;28;20032;-76
2022/11/03 08:12:22;;;;;;;10.35;3.15;;;11.60;99.90;;;;;;5064199;28;20044;-84
2022/11/03 08:14:48;;;;;;;12.05;3.67;;;11.60;99.90;;;;;;5058175;28;20033;-81
2022/11/03 08:17:14;;;;;;;17.02;4.18;;;11.70;99.90;;;;;;5076226;28;20047;-81
2022/11/03 08:19:40;;;;;;;13.80;3.55;;;11.70;99.90;;;;;;5066588;28;20079;-80
2022/11/03 08:22:06;;;;;;;14.38;4.15;;;11.70;99.90;;;;;;5070895;28;20094;-83
2022/11/03 08:24:31;;;;;;;13.63;3.65;;;11.70;99.90;;;;;;5052101;28;20520;-74
2022/11/03 08:26:57;;;;;;;14.70;3.83;;;11.80;99.90;;;;;;5072326;28;20075;-83
2022/11/03 08:29:26;;;;;;;10.85;3.47;;;11.80;99.90;;;;;;5058670;28;20049;-81
2022/11/03 08:31:52;;;;;;;12.68;3.85;;;11.80;99.90;;;;;;5072408;28;20694;-81
2022/11/03 08:34:17;;;;;;;12.32;3.58;;;11.90;99.90;;;;;;5052296;28;20141;-81
2022/11/03 08:36:43;;;;;;;11.02;3.58;;;11.90;99.90;;;;;;5064402;28;20494;-81
2022/11/03 08:39:09;;;;;;;12.00;3.88;;;12.00;99.90;;;;;;5075220;28;20133;-82
2022/11/03 08:41:34;;;;;;;14.50;3.58;;;12.00;99.90;;;;;;5054447;28;20041;-85
2022/11/03 08:44:00;;;;;;;12.60;3.88;;;12.10;99.90;;;;;;5057629;28;20036;-83
2022/11/03 08:46:26;;;;;;;12.57;3.63;;;12.10;99.90;;;;;;5084163;28;20082;-85
2022/11/03 08:48:51;;;;;;;13.23;4.45;;;12.10;99.90;;;;;;5066203;28;20496;-83
2022/11/03 08:51:17;;;;;;;14.63;3.90;;;12.30;99.90;;;;;;5066123;28;20094;-80
2022/11/03 08:53:43;;;;;;;11.90;3.67;;;12.30;99.90;;;;;;5066572;28;20593;-87
2022/11/03 08:56:10;;;;;;;10.73;3.67;;;12.30;99.90;;;;;;5084755;28;20048;-87
2022/11/03 08:58:35;;;;;;;15.73;3.95;;;12.40;99.90;;;;;;5066687;28;20471;-84
2022/11/03 09:01:01;;;;;;;17.90;4.60;;;12.40;99.90;;;;;;5053879;28;20047;-83
2022/11/03 09:03:27;;;;;;;17.48;4.50;;;12.50;99.90;;;;;;5065120;28;20136;-83
2022/11/03 09:05:52;;;;;;;13.02;3.40;;;12.50;99.90;;;;;;5060139;28;20041;-83
2022/11/03 09:08:18;;;;;;;12.10;3.50;;;12.50;99.90;;;;;;5066718;28;20048;-81
2022/11/03 09:10:43;;;;;;;17.50;4.53;;;12.50;99.90;;;;;;5077185;28;20068;-83
2022/11/03 09:13:09;;;;;;;15.38;3.95;;;12.60;99.90;;;;;;5069959;28;20484;-82
2022/11/03 09:15:35;;;;;;;12.45;3.95;;;12.60;99.90;;;;;;5066951;28;20106;-84
2022/11/03 09:18:01;;;;;;;12.75;4.20;;;12.70;99.90;;;;;;5060089;28;20091;-83
2022/11/03 09:20:26;;;;;;;14.10;3.60;;;12.70;99.90;;;;;;5088289;28;20395;-83
2022/11/03 09:22:52;;;;;;;15.98;4.22;;;12.70;99.90;;;;;;5088986;28;20138;-83
2022/11/03 09:25:18;;;;;;;14.70;3.80;;;12.80;99.90;;;;;;5105911;27;20048;-85
2022/11/03 09:27:44;;;;;;;14.88;3.75;;;12.80;99.90;;;;;;5087781;28;20048;-83
2022/11/03 09:30:11;;;;;;;12.48;3.85;;;12.90;99.90;;;;;;5085564;28;20037;-85
2022/11/03 09:32:37;;;;;;;13.98;3.83;;;12.90;99.90;;;;;;5089912;28;20079;-83
2022/11/03 09:35:03;;;;;;;13.63;3.90;;;13.00;99.90;;;;;;5079583;28;20059;-80
2022/11/03 09:37:29;;;;;;;15.00;3.60;;;13.00;99.90;;;;;;5086092;28;20044;-85
2022/11/03 09:39:55;;;;;;;11.82;4.30;;;13.10;99.90;;;;;;5085451;28;20105;-85
2022/11/03 09:42:21;;;;;;;14.75;3.88;;;13.10;99.90;;;;;;5077806;28;20380;-82
2022/11/03 09:44:49;;;;;;;16.30;4.18;;;13.30;99.90;;;;;;5074798;28;20068;-82
2022/11/03 09:47:35;;;;;;;13.00;3.65;;;13.30;99.90;;;;;;5083991;28;20480;-83
2022/11/03 09:50:01;;;;;;;13.55;3.50;;;13.40;99.90;;;;;;5085634;28;20044;-83
2022/11/03 09:52:27;;;;;;;15.93;3.90;;;13.40;99.90;;;;;;5089003;28;20403;-83
2022/11/03 09:54:58;;;;;;;11.93;3.40;;;13.40;99.90;;;;;;5083944;28;20032;-83
2022/11/03 09:57:26;;;;;;;15.13;3.70;;;13.50;99.90;;;;;;5089625;28;20495;-83
2022/11/03 09:59:53;;;;;;;12.98;3.28;;;13.50;99.90;;;;;;5089768;28;20036;-82
2022/11/03 10:02:21;;;;;;;12.70;4.22;;;13.60;99.90;;;;;;5086930;28;20387;-83
2022/11/03 10:04:47;;;;;;;12.30;3.72;;;13.60;99.90;;;;;;5084617;28;20060;-83
2022/11/03 10:07:13;;;;;;;10.65;3.20;;;13.60;99.90;;;;;;5090099;28;20472;-83
2022/11/03 10:09:44;;;;;;;11.18;3.67;;;13.70;99.90;;;;;;5089303;28;20040;-83
2022/11/03 10:12:10;;;;;;;12.00;3.40;;;13.70;99.90;;;;;;5089588;28;20048;-82
2022/11/03 10:14:36;;;;;;;10.88;3.00;;;13.70;99.90;;;;;;5113763;27;20439;-82
2022/11/03 10:17:01;;;;;;;12.75;3.25;;;13.80;99.90;;;;;;5088737;28;20048;-82
2022/11/03 10:19:27;;;;;;;11.23;3.38;;;13.80;99.90;;;;;;5082607;28;20067;-81
2022/11/03 10:21:53;;;;;;;15.02;3.33;;;13.80;99.90;;;;;;5071562;28;20041;-80
2022/11/03 10:24:19;;;;;;;12.40;3.22;;;13.90;99.90;;;;;;5084018;28;20083;-80
2022/11/03 10:26:51;;;;;;;10.93;3.17;;;14.00;99.90;;;;;;5075102;28;20036;-80
2022/11/03 10:29:27;;;;;;;13.63;3.35;;;14.00;99.90;;;;;;5069029;28;20393;-81
2022/11/03 10:31:57;;;;;;;13.80;3.50;;;14.00;99.90;;;;;;5074059;28;20750;-83
2022/11/03 10:34:33;;;;;;;9.02;3.38;;;14.10;99.90;;;;;;5080572;28;20043;-83
2022/11/03 10:37:11;;;;;;;10.50;3.15;;;14.10;99.90;;;;;;5073454;28;20373;-82
2022/11/03 10:39:37;;;;;;;11.45;3.13;;;14.10;99.90;;;;;;5086305;28;20187;-82
2022/11/03 10:42:03;;;;;;;12.63;3.30;;;14.10;99.90;;;;;;5083493;28;20166;-81
2022/11/03 10:44:29;;;;;;;12.90;3.53;;;14.20;99.90;;;;;;5065493;28;20072;-81
2022/11/03 10:47:00;;;;;;;11.02;3.30;;;14.20;99.90;;;;;;5085020;28;20075;-83
2022/11/03 10:49:31;;;;;;;10.40;2.85;;;14.20;99.90;;;;;;5089309;28;20056;-84
2022/11/03 10:52:17;;;;;;;12.93;3.10;;;14.30;99.90;;;;;;5084990;28;20486;-85
2022/11/03 10:54:42;;;;;;;10.35;2.92;;;14.40;99.90;;;;;;5105187;27;20037;-82
2022/11/03 10:57:08;;;;;;;10.95;3.35;;;14.40;99.90;;;;;;5079018;28;20039;-82
2022/11/03 10:59:36;;;;;;;10.90;3.60;;;14.60;99.90;;;;;;5084685;28;20141;-80
2022/11/03 11:02:12;;;;;;;12.77;3.60;;;14.60;99.90;;;;;;5081224;28;20071;-81
2022/11/03 11:04:37;;;;;;;11.07;3.00;;;14.60;99.90;;;;;;5082805;28;20051;-79
2022/11/03 11:07:17;;;;;;;16.10;4.68;;;14.70;99.90;;;;;;5078428;28;20039;-84
2022/11/03 11:09:43;;;;;;;11.50;3.05;;;14.70;99.90;;;;;;5097514;27;20472;-85
2022/11/03 11:12:23;;;;;;;8.32;2.83;;;14.70;99.90;;;;;;5087939;28;20040;-84
2022/11/03 11:15:05;;;;;;;11.25;2.70;;;14.80;99.90;;;;;;5086397;28;20048;-85
2022/11/03 11:17:44;;;;;;;12.13;3.08;;;14.70;99.90;;;;;;5063253;28;20084;-84
2022/11/03 11:20:17;;;;;;;9.07;2.80;;;14.80;99.90;;;;;;5081447;28;20036;-86
2022/11/03 11:22:43;;;;;;;11.10;2.72;;;14.80;99.90;;;;;;5088700;28;20044;-85
2022/11/03 11:25:09;;;;;;;10.35;3.05;;;14.70;99.90;;;;;;5086894;28;20073;-84
2022/11/03 11:27:45;;;;;;;13.35;3.17;;;14.80;99.90;;;;;;5077961;28;20143;-87
2022/11/03 11:30:20;;;;;;;10.30;2.77;;;14.80;99.90;;;;;;5078579;28;20077;-86
2022/11/03 11:32:47;;;;;;;8.27;2.78;;;14.70;99.90;;;;;;5072224;28;20044;-87
2022/11/03 11:35:23;;;;;;;9.60;2.65;;;14.70;99.90;;;;;;5070193;28;20146;-88
2022/11/03 11:37:49;;;;;;;11.18;3.13;;;14.70;99.90;;;;;;5073510;28;20052;-86
2022/11/03 11:40:24;;;;;;;9.65;2.90;;;14.70;99.90;;;;;;5081597;28;20115;-87
2022/11/03 11:43:12;;;;;;;12.88;3.45;;;14.70;99.90;;;;;;5077827;28;20072;-87
2022/11/03 11:46:15;;;;;;;12.40;2.80;;;14.70;99.90;;;;;;5080631;28;20089;-86
2022/11/03 11:48:41;;;;;;;10.73;3.05;;;14.60;99.90;;;;;;5059444;28;20052;-80
2022/11/03 11:51:09;;;;;;;10.73;2.60;;;14.70;99.90;;;;;;5085050;28;20373;-83
2022/11/03 11:53:40;;;;;;;8.52;2.63;;;14.60;99.90;;;;;;5067139;28;20123;-83
2022/11/03 11:56:10;;;;;;;11.25;3.08;;;14.60;99.90;;;;;;5087338;28;20059;-83
2022/11/03 11:58:46;;;;;;;10.77;3.00;;;14.60;99.90;;;;;;5073731;28;20055;-81
2022/11/03 12:01:27;;;;;;;8.57;2.73;;;14.60;99.90;;;;;;5080170;28;20117;-82
2022/11/03 12:03:56;;;;;;;8.80;2.85;;;14.60;99.90;;;;;;5068142;28;20310;-81
2022/11/03 12:06:36;;;;;;;8.63;2.95;;;14.60;99.90;;;;;;5086575;28;20055;-81
2022/11/03 12:09:22;;;;;;;12.55;2.75;;;14.60;99.90;;;;;;5070402;28;20039;-84
2022/11/03 12:11:55;;;;;;;9.30;2.60;;;14.60;99.90;;;;;;5082614;28;20093;-79
2022/11/03 12:14:33;;;;;;;11.48;2.97;;;14.60;99.90;;;;;;5085244;28;20093;-82
2022/11/03 12:17:17;;;;;;;9.52;3.00;;;14.60;99.90;;;;;;5083013;28;20541;-86
2022/11/03 12:19:45;;;;;;;10.77;2.67;;;14.60;99.90;;;;;;5086981;28;20097;-84
2022/11/03 12:22:23;;;;;;;7.22;2.60;;;14.60;99.90;;;;;;5086670;28;20090;-88
2022/11/03 12:24:53;;;;;;;6.57;2.50;;;14.60;99.90;;;;;;5061609;28;20045;-81
2022/11/03 12:27:38;;;;;;;9.13;2.92;;;14.60;99.90;;;;;;5067804;28;20047;-82
2022/11/03 12:30:15;;;;;;;8.35;3.10;;;14.50;99.90;;;;;;5093708;28;20040;-84
2022/11/03 12:32:41;;;;;;;;;;;14.60;99.90;;;;;;5084556;28;20415;-87
2022/11/03 12:35:08;;;;;;;11.30;2.63;;;14.50;99.90;;;;;;5075433;28;19923;-88
2022/11/03 12:37:34;;;;;;;10.98;3.00;;;14.50;99.90;;;;;;5076495;28;20844;-79
2022/11/03 12:40:00;;;;;;;9.18;2.33;;;14.50;99.90;;;;;;5068018;28;20178;-79
2022/11/03 12:42:26;;;;;;;12.55;2.88;;;14.50;99.90;;;;;;5072251;28;20172;-81
2022/11/03 12:44:52;;;;;;;8.18;2.50;;;14.50;99.90;;;;;;5066259;28;20388;-78
2022/11/03 12:47:18;;;;;;;8.10;2.28;;;14.50;99.90;;;;;;5065189;28;20041;-88
2022/11/03 12:49:43;;;;;;;7.85;3.00;;;14.50;99.90;;;;;;5071681;28;20051;-80
2022/11/03 12:52:10;;;;;;;10.98;2.53;;;14.50;99.90;;;;;;5086840;28;20050;-79
2022/11/03 12:54:35;;;;;;;11.48;2.55;;;14.60;99.90;;;;;;5074951;28;20040;-83
2022/11/03 12:57:01;;;;;;;7.95;2.38;;;14.60;99.90;;;;;;5067988;28;20101;-78
2022/11/03 12:59:27;;;;;;;8.70;2.40;;;14.50;99.90;;;;;;5066652;28;20048;-77
2022/11/03 13:01:52;;;;;;;8.93;2.55;;;14.60;99.90;;;;;;5069485;28;20068;-78
2022/11/03 13:04:18;;;;;;;8.45;2.53;;;14.70;99.90;;;;;;5081087;28;20339;-80
2022/11/03 13:06:43;;;;;;;6.93;2.30;;;14.80;99.90;;;;;;5089034;28;20085;-79
2022/11/03 13:09:09;;;;;;;9.90;3.00;;;14.80;99.90;;;;;;5082645;28;20040;-80
2022/11/03 13:14:20;;;;;;;7.80;2.33;;;14.90;99.90;;;;;;5082376;28;20048;-76
2022/11/03 13:16:45;;;;;;;7.03;2.40;;;15.00;99.90;;;;;;5054451;28;20056;-76